Wadena, MN (56482)

5:10 PM CDT on August 03, 2015 (GMT -0500)
Wadena Municipal | | Change Station
CLOSE
Current Station
Airport
Location: Wadena,
Elevation: 1371 ft
Nearby Weather Stations

Elev 1371 ft 46.45 °N, 95.21 °W | Updated 18 minutes ago

Partly Cloudy
Partly Cloudy
75 °F
Feels Like 75 °F
N
16
Wind Variable Wind from WNW
Gusts 21 mph

Today
High -- | Low -- °F
--% Chance of Precip.
Yesterday
High -- | Low -- °F
Precip. -- in
6:03 AM 8:48 PM
Waning Gibbous, 83% visible
Pressure 29.92 in
Visibility 10.0 miles
Clouds Scattered Clouds 5500 ft
Dew Point 50 °F
Humidity 41%
Rainfall 0.00 in
Snow Depth Not available.
UV 4 out of 12
Pollen 7.30 out of 12
Air Quality Not available.
Flu Activity Not available.
METAR KADC 032152Z AUTO 30014G18KT 10SM SCT055 24/10 A2992 RMK AO2

More Conditions Fewer Conditions

Pressure 29.92 in
Visibility 10.0 miles
Clouds Scattered Clouds 5500 ft
Dew Point 50 °F
Humidity 41%
Rainfall 0.00 in
Snow Depth Not available.
UV 4 out of 12
Pollen 7.30 out of 12
Air Quality Not available.
Flu Activity Not available.
METAR KADC 032152Z AUTO 30014G18KT 10SM SCT055 24/10 A2992 RMK AO2

More Conditions Fewer Conditions

10-Day Weather Forecast

×

Almanac

Astronomy

Aug. 03, 2015 Rise Set
Actual Time
Civil Twilight
Nautical Twilight
Astronomical Twilight
Moon
Length of Visible Light
Length of Day
Tomorrow will be .
, % of the Moon is Illuminated

Today's Extremes

State Highs State Lows

Community

WunderPhotos

Upload Photos

1,843,782 photos uploaded!

WunderBlogs® & News

Nearby

Air Quality

  Air Quality AQ Index Pollutant
Not available.

Snow Depth

Station Depth Elevation

Earthquake Activity

City Distance Mag. Time & Date
Minimum magnitude displayed is 2.5.

Coastal Water Temperatures

Place Temperature

Stations

Nearby Weather Stations

Station Location Temp. Windchill Dew Point Humidity Wind Precip. Elev Updated Type